Time;durP1;ratioP1;P1;durP2;ratioP2;P2;SDS_P1;SDS_P2;PMS_P1;PMS_P2;Temp;Humidity;BMP_temperature;BMP_pressure;BME280_temperature;BME280_humidity;BME280_pressure;Samples;Min_cycle;Max_cycle;Signal;HPM_P1;HPM_P2
2021/01/23 00:00:44;;;;;;;0.80;0.80;;;1.80;99.90;;;;;;5069089;28;20207;-71
2021/01/23 00:03:10;;;;;;;1.00;0.90;;;1.90;99.90;;;;;;5068352;28;20695;-71
2021/01/23 00:05:36;;;;;;;1.23;0.90;;;1.80;99.90;;;;;;5069234;28;20225;-73
2021/01/23 00:08:03;;;;;;;1.00;0.90;;;1.80;99.90;;;;;;5070283;28;20200;-73
2021/01/23 00:10:30;;;;;;;1.00;0.90;;;1.80;99.90;;;;;;5071403;28;20200;-73
2021/01/23 00:12:56;;;;;;;0.90;0.80;;;1.80;99.90;;;;;;5070332;22;20228;-92
2021/01/23 00:15:23;;;;;;;1.17;0.98;;;1.80;99.90;;;;;;5052441;28;20670;-92
2021/01/23 00:17:49;;;;;;;0.90;0.80;;;1.80;99.90;;;;;;5056239;28;20256;-92
2021/01/23 00:20:16;;;;;;;1.10;1.00;;;1.80;99.90;;;;;;5055533;28;20198;-91
2021/01/23 00:25:30;;;;;;;1.25;1.08;;;1.80;99.90;;;;;;5052374;28;20200;-91
2021/01/23 00:28:12;;;;;;;1.23;1.13;;;1.80;99.90;;;;;;5057390;28;20204;-91
2021/01/23 00:30:38;;;;;;;1.35;1.25;;;1.70;99.90;;;;;;5055786;28;20646;-90
2021/01/23 00:33:05;;;;;;;1.33;1.23;;;1.70;99.90;;;;;;5056531;28;20224;-90
2021/01/23 00:35:31;;;;;;;1.10;1.00;;;1.70;99.90;;;;;;5055699;28;20673;-91
2021/01/23 00:37:58;;;;;;;1.30;1.17;;;1.60;99.90;;;;;;5058901;28;20220;-91
2021/01/23 00:40:25;;;;;;;1.40;1.30;;;1.60;99.90;;;;;;5058614;28;20304;-91
2021/01/23 00:42:51;;;;;;;1.50;1.08;;;1.60;99.90;;;;;;5058178;28;20255;-91
2021/01/23 00:45:18;;;;;;;1.20;1.10;;;1.60;99.90;;;;;;5058840;28;20201;-92
2021/01/23 00:47:47;;;;;;;1.20;1.10;;;1.60;99.90;;;;;;5058877;28;20207;-91
2021/01/23 00:50:14;;;;;;;1.38;1.27;;;1.60;99.90;;;;;;5059115;28;20212;-91
2021/01/23 00:52:40;;;;;;;1.33;1.23;;;1.60;99.90;;;;;;5058748;28;20304;-90
2021/01/23 00:55:07;;;;;;;1.60;1.33;;;1.60;99.90;;;;;;5059213;28;20654;-91
2021/01/23 00:57:35;;;;;;;1.65;1.45;;;1.60;99.90;;;;;;5057021;28;20205;-91
2021/01/23 01:00:01;;;;;;;1.70;1.50;;;1.60;99.90;;;;;;5057146;28;20209;-91
2021/01/23 01:02:27;;;;;;;2.40;1.88;;;1.60;99.90;;;;;;5056600;28;20606;-91
2021/01/23 01:04:54;;;;;;;1.45;1.33;;;1.60;99.90;;;;;;5057062;28;20259;-90
2021/01/23 01:07:20;;;;;;;1.40;1.30;;;1.60;99.90;;;;;;5057648;28;20662;-92
2021/01/23 01:15:44;;;;;;;1.92;1.73;;;1.60;99.90;;;;;;5057233;28;20202;-93
2021/01/23 01:18:17;;;;;;;2.13;1.92;;;1.60;99.90;;;;;;5044756;28;20201;-92
2021/01/23 01:20:44;;;;;;;1.70;1.60;;;1.70;99.90;;;;;;5057925;28;20205;-92
2021/01/23 01:23:10;;;;;;;2.58;2.38;;;1.70;99.90;;;;;;5057758;28;20229;-92
2021/01/23 01:25:37;;;;;;;2.38;2.17;;;1.70;99.90;;;;;;5058155;28;20213;-91
2021/01/23 01:28:03;;;;;;;2.67;2.03;;;1.70;99.90;;;;;;5057271;28;20200;-91
2021/01/23 01:30:30;;;;;;;2.53;2.33;;;1.60;99.90;;;;;;5056383;28;20205;-91
2021/01/23 01:32:56;;;;;;;2.25;2.05;;;1.70;99.90;;;;;;5057647;28;20221;-91
2021/01/23 01:38:06;;;;;;;2.03;1.80;;;1.60;99.90;;;;;;5066335;28;20204;-93
2021/01/23 01:40:33;;;;;;;2.28;2.08;;;1.70;99.90;;;;;;5055469;28;20212;-92
2021/01/23 01:45:40;;;;;;;1.80;1.70;;;1.70;99.90;;;;;;5051761;28;20200;-91
2021/01/23 01:48:11;;;;;;;2.42;1.73;;;1.70;99.90;;;;;;5055043;28;20634;-91
2021/01/23 01:50:38;;;;;;;2.15;1.60;;;1.60;99.90;;;;;;5055095;28;20574;-91
2021/01/23 01:53:05;;;;;;;1.60;1.50;;;1.70;99.90;;;;;;5055020;28;20270;-92
2021/01/23 01:55:47;;;;;;;1.60;1.42;;;1.70;99.90;;;;;;5056397;28;20201;-91
2021/01/23 01:58:44;;;;;;;1.20;1.10;;;1.80;99.90;;;;;;5055632;28;20205;-93
2021/01/23 02:01:10;;;;;;;2.20;1.50;;;1.80;99.90;;;;;;5057530;28;20221;-92
2021/01/23 02:03:59;;;;;;;1.20;1.10;;;1.80;99.90;;;;;;5057050;28;20224;-91
2021/01/23 02:06:45;;;;;;;1.45;1.35;;;1.80;99.90;;;;;;5055373;28;20205;-92
2021/01/23 02:09:28;;;;;;;1.25;1.15;;;1.80;99.90;;;;;;5069252;28;20231;-91
2021/01/23 02:12:05;;;;;;;1.40;1.30;;;1.80;99.90;;;;;;5077858;28;20272;-95
2021/01/23 02:14:41;;;;;;;1.40;1.27;;;1.80;99.90;;;;;;5062987;28;20215;-92
2021/01/23 02:17:10;;;;;;;1.40;1.30;;;1.80;99.90;;;;;;5058903;28;20205;-92
2021/01/23 02:20:13;;;;;;;1.42;1.33;;;1.80;99.90;;;;;;5059702;28;20288;-92
2021/01/23 02:23:13;;;;;;;2.17;1.98;;;1.80;99.90;;;;;;5058799;28;20245;-92
2021/01/23 02:25:59;;;;;;;2.33;1.38;;;1.80;99.90;;;;;;5043404;28;20264;-91
2021/01/23 02:29:01;;;;;;;1.70;1.60;;;1.80;99.90;;;;;;5057929;28;20205;-92
2021/01/23 02:31:32;;;;;;;1.35;1.25;;;1.80;99.90;;;;;;5057903;28;20228;-91
2021/01/23 02:34:01;;;;;;;1.45;1.35;;;1.80;99.90;;;;;;5057833;28;20201;-92
2021/01/23 02:36:29;;;;;;;1.73;1.63;;;1.90;99.90;;;;;;5057798;28;20212;-91
2021/01/23 02:38:56;;;;;;;1.67;1.50;;;1.80;99.90;;;;;;5066270;28;20199;-91
2021/01/23 02:41:23;;;;;;;1.88;1.38;;;1.80;99.90;;;;;;5071808;28;20225;-92
2021/01/23 02:43:49;;;;;;;1.40;1.30;;;1.90;99.90;;;;;;5057458;28;20225;-91
2021/01/23 02:46:17;;;;;;;1.45;1.27;;;1.90;99.90;;;;;;5057904;28;20207;-92
2021/01/23 02:49:01;;;;;;;1.60;1.50;;;1.90;99.90;;;;;;5057643;28;20217;-92
2021/01/23 02:51:35;;;;;;;1.40;1.30;;;1.80;99.90;;;;;;5054369;28;20260;-92
2021/01/23 02:54:09;;;;;;;1.40;1.30;;;1.90;99.90;;;;;;5057403;28;20209;-92
2021/01/23 02:56:36;;;;;;;1.27;1.17;;;1.90;99.90;;;;;;5056604;28;20204;-92
2021/01/23 02:59:06;;;;;;;1.60;1.50;;;1.90;99.90;;;;;;5056728;28;20201;-93
2021/01/23 03:01:39;;;;;;;1.65;1.55;;;1.90;99.90;;;;;;5056381;28;20232;-92
2021/01/23 03:11:22;;;;;;;1.77;1.50;;;1.90;99.90;;;;;;4958298;28;20286;-91
2021/01/23 03:13:49;;;;;;;1.70;1.40;;;1.90;99.90;;;;;;4937802;28;20212;-91
2021/01/23 03:16:16;;;;;;;2.00;1.80;;;1.90;99.90;;;;;;5054983;28;20208;-91
2021/01/23 03:25:03;;;;;;;1.80;1.70;;;1.90;99.90;;;;;;5036303;28;20743;-90
2021/01/23 03:27:29;;;;;;;1.75;1.65;;;2.00;99.90;;;;;;5058296;28;20201;-90
2021/01/23 03:30:26;;;;;;;2.13;1.90;;;2.00;99.90;;;;;;5058270;28;20205;-91
2021/01/23 03:33:34;;;;;;;2.45;2.25;;;2.00;99.90;;;;;;5057816;28;20245;-91
2021/01/23 03:39:57;;;;;;;2.30;2.10;;;2.00;99.90;;;;;;5051848;28;20212;-90
2021/01/23 03:46:44;;;;;;;2.00;1.75;;;2.00;99.90;;;;;;5058386;28;20315;-90
2021/01/23 03:52:53;;;;;;;2.15;1.80;;;2.00;99.90;;;;;;4982466;28;20713;-91
2021/01/23 03:55:56;;;;;;;2.17;1.75;;;1.90;99.90;;;;;;5056049;28;20198;-90
2021/01/23 04:05:35;;;;;;;2.55;2.25;;;2.00;99.90;;;;;;5057180;28;20281;-92
2021/01/23 04:11:42;;;;;;;2.00;1.80;;;1.90;99.90;;;;;;5056758;28;20252;-91
2021/01/23 04:18:18;;;;;;;1.80;1.60;;;2.00;99.90;;;;;;5035615;28;20212;-90
2021/01/23 04:21:13;;;;;;;2.53;2.33;;;2.00;99.90;;;;;;5041575;28;20278;-90
2021/01/23 04:23:40;;;;;;;2.28;2.08;;;2.00;99.90;;;;;;5055889;28;20782;-90
2021/01/23 04:26:06;;;;;;;2.20;2.00;;;2.00;99.90;;;;;;5056020;28;20659;-90
2021/01/23 04:28:37;;;;;;;2.13;1.90;;;2.00;99.90;;;;;;5056021;28;20208;-90
2021/01/23 04:31:59;;;;;;;1.95;1.80;;;2.00;99.90;;;;;;5055580;28;20212;-91
2021/01/23 04:42:27;;;;;;;;;;;;;;;;;;;;;
2021/01/23 04:45:38;;;;;;;;;;;;;;;;;;;;;
2021/01/23 04:51:05;;;;;;;2.13;1.92;;;1.80;99.90;;;;;;5025800;22;20193;-74
2021/01/23 04:53:33;;;;;;;2.13;1.92;;;1.70;99.90;;;;;;5058448;28;20485;-74
2021/01/23 04:55:59;;;;;;;5.82;2.00;;;1.80;99.90;;;;;;5065389;28;20229;-73
2021/01/23 04:58:25;;;;;;;2.13;1.83;;;1.80;99.90;;;;;;5063053;28;20605;-74
2021/01/23 05:00:52;;;;;;;2.05;1.80;;;1.70;99.90;;;;;;5051194;28;20715;-74
2021/01/23 05:03:18;;;;;;;2.58;2.10;;;1.70;99.90;;;;;;5050569;28;20229;-74
2021/01/23 05:06:04;;;;;;;2.63;2.42;;;1.70;99.90;;;;;;5050730;28;20217;-74
2021/01/23 05:08:37;;;;;;;1.98;1.80;;;1.60;99.90;;;;;;5050491;28;20248;-74
2021/01/23 05:11:03;;;;;;;1.60;1.50;;;1.60;99.90;;;;;;5050841;28;20270;-74
2021/01/23 05:13:30;;;;;;;2.97;2.10;;;1.60;99.90;;;;;;5050184;28;20197;-74
2021/01/23 05:15:56;;;;;;;2.35;2.00;;;1.50;99.90;;;;;;5050489;28;20225;-74
2021/01/23 05:18:23;;;;;;;2.05;1.90;;;1.50;99.90;;;;;;5050596;28;20201;-74
2021/01/23 05:20:50;;;;;;;2.83;2.05;;;1.50;99.90;;;;;;5050438;28;20220;-74
2021/01/23 05:23:17;;;;;;;1.98;1.77;;;1.50;99.90;;;;;;5049929;28;20221;-74
2021/01/23 05:25:48;;;;;;;1.90;1.80;;;1.50;99.90;;;;;;5050368;28;20343;-74
2021/01/23 05:28:25;;;;;;;2.25;1.80;;;1.50;99.90;;;;;;5050702;28;20576;-74
2021/01/23 05:30:52;;;;;;;2.33;1.80;;;1.50;99.90;;;;;;5050220;28;20212;-74
2021/01/23 05:33:20;;;;;;;1.70;1.60;;;1.50;99.90;;;;;;5049701;28;20201;-73
2021/01/23 05:35:57;;;;;;;1.77;1.67;;;1.40;99.90;;;;;;5050469;28;20221;-74
2021/01/23 05:38:28;;;;;;;2.28;2.08;;;1.50;99.90;;;;;;5049965;28;20244;-74
2021/01/23 05:40:57;;;;;;;2.10;1.85;;;1.40;99.90;;;;;;5050157;28;20205;-74
2021/01/23 05:43:32;;;;;;;2.17;1.85;;;1.40;99.90;;;;;;5049261;28;20759;-74
2021/01/23 05:45:59;;;;;;;1.60;1.50;;;1.30;99.90;;;;;;5049908;28;20225;-74
2021/01/23 05:48:25;;;;;;;2.35;1.63;;;1.30;99.90;;;;;;5049050;28;20205;-74
2021/01/23 05:50:52;;;;;;;2.30;2.10;;;1.30;99.90;;;;;;5049505;28;20197;-74
2021/01/23 05:53:18;;;;;;;2.15;1.95;;;1.30;99.90;;;;;;5049219;28;20205;-74
2021/01/23 05:55:44;;;;;;;2.40;1.83;;;1.30;99.90;;;;;;5049653;28;20225;-74
2021/01/23 05:58:12;;;;;;;2.28;1.63;;;1.30;99.90;;;;;;5049898;28;20204;-74
2021/01/23 06:00:40;;;;;;;2.70;2.50;;;1.20;99.90;;;;;;5049369;28;20228;-74
2021/01/23 06:03:06;;;;;;;2.20;2.00;;;1.20;99.90;;;;;;5049450;28;20228;-74
2021/01/23 06:05:34;;;;;;;2.45;2.20;;;1.20;99.90;;;;;;5049417;28;20716;-74
2021/01/23 06:08:00;;;;;;;2.50;2.30;;;1.10;99.90;;;;;;5050723;28;20208;-74
2021/01/23 06:10:42;;;;;;;2.97;2.78;;;1.10;99.90;;;;;;5057651;28;20193;-74
2021/01/23 06:13:38;;;;;;;2.90;2.38;;;1.10;99.90;;;;;;5065789;22;20714;-90
2021/01/23 06:16:07;;;;;;;3.63;3.05;;;1.10;99.90;;;;;;5032008;28;20198;-90
2021/01/23 06:18:34;;;;;;;3.10;2.75;;;1.10;99.90;;;;;;5032896;28;20205;-91
2021/01/23 06:21:02;;;;;;;2.97;2.78;;;1.10;99.90;;;;;;5033462;28;20202;-90
2021/01/23 06:23:48;;;;;;;2.65;2.17;;;1.20;99.90;;;;;;5031660;28;20229;-90
2021/01/23 06:26:17;;;;;;;3.40;2.45;;;1.20;99.90;;;;;;5032106;28;20206;-91
2021/01/23 06:28:56;;;;;;;2.80;2.60;;;1.20;99.90;;;;;;5033198;28;20210;-90
2021/01/23 06:31:38;;;;;;;3.50;2.67;;;1.20;99.90;;;;;;5034627;28;20209;-90
2021/01/23 06:34:27;;;;;;;2.88;2.65;;;1.20;99.90;;;;;;5045816;28;20182;-91
2021/01/23 06:37:19;;;;;;;3.30;2.67;;;1.10;99.90;;;;;;5035442;28;20743;-90
2021/01/23 06:40:08;;;;;;;2.95;2.65;;;1.10;99.90;;;;;;5032214;28;20213;-88
2021/01/23 06:42:36;;;;;;;3.38;2.50;;;1.10;99.90;;;;;;5031758;28;20239;-88
2021/01/23 06:45:24;;;;;;;3.00;2.78;;;1.10;99.90;;;;;;5032810;28;20209;-89
2021/01/23 06:47:52;;;;;;;3.53;2.85;;;1.10;99.90;;;;;;5032611;28;20292;-89
2021/01/23 06:50:31;;;;;;;2.70;2.50;;;1.10;99.90;;;;;;5032139;28;20206;-89
2021/01/23 06:52:57;;;;;;;3.60;3.30;;;1.00;99.90;;;;;;5030075;28;20459;-89
2021/01/23 06:55:47;;;;;;;3.33;3.03;;;1.10;99.90;;;;;;5034252;28;20204;-89
2021/01/23 06:58:15;;;;;;;3.05;2.78;;;1.10;99.90;;;;;;5030848;28;20546;-88
2021/01/23 07:00:42;;;;;;;3.03;2.72;;;1.10;99.90;;;;;;5047938;28;20205;-88
2021/01/23 07:03:13;;;;;;;2.45;2.25;;;1.00;99.90;;;;;;5051605;28;20580;-88
2021/01/23 07:05:50;;;;;;;3.78;2.97;;;1.00;99.90;;;;;;5050880;28;20201;-89
2021/01/23 07:08:25;;;;;;;2.92;2.63;;;1.10;99.90;;;;;;5064245;28;20192;-89
2021/01/23 07:11:18;;;;;;;3.83;2.40;;;1.00;99.90;;;;;;5076440;28;20192;-88
2021/01/23 07:13:59;;;;;;;3.88;3.50;;;1.10;99.90;;;;;;5030188;28;20208;-89
2021/01/23 07:16:28;;;;;;;3.00;2.50;;;1.10;99.90;;;;;;5076575;28;20197;-89
2021/01/23 07:18:56;;;;;;;4.32;2.63;;;1.10;99.90;;;;;;5063441;28;20208;-88
2021/01/23 07:21:23;;;;;;;3.65;2.75;;;1.10;99.90;;;;;;5068483;28;20196;-89
2021/01/23 07:23:50;;;;;;;3.88;2.80;;;1.10;99.90;;;;;;5058455;28;20319;-88
2021/01/23 07:26:16;;;;;;;4.55;2.75;;;1.20;99.90;;;;;;5053771;28;20250;-89
2021/01/23 07:28:48;;;;;;;3.95;3.05;;;1.20;99.90;;;;;;5057734;28;20205;-88
2021/01/23 07:31:27;;;;;;;3.58;3.28;;;1.20;99.90;;;;;;5075506;28;20185;-89
2021/01/23 07:33:55;;;;;;;4.18;3.20;;;1.10;99.90;;;;;;5074175;28;20268;-88
2021/01/23 07:36:32;;;;;;;3.78;3.47;;;1.10;99.90;;;;;;5054192;28;20235;-89
2021/01/23 07:38:59;;;;;;;3.80;3.40;;;1.10;99.90;;;;;;5053740;28;20205;-89
2021/01/23 07:41:29;;;;;;;3.00;2.80;;;1.20;99.90;;;;;;5053604;28;20205;-88
2021/01/23 07:43:57;;;;;;;4.43;3.67;;;1.20;99.90;;;;;;5053780;28;20205;-89
2021/01/23 07:46:23;;;;;;;3.90;3.00;;;1.30;99.90;;;;;;5054153;28;20201;-89
2021/01/23 07:48:51;;;;;;;3.83;2.80;;;1.20;99.90;;;;;;5055220;28;20205;-89
2021/01/23 07:51:25;;;;;;;3.63;3.33;;;1.30;99.90;;;;;;5054163;28;20205;-88
2021/01/23 07:54:06;;;;;;;4.18;3.65;;;1.30;99.90;;;;;;5052357;28;20784;-88
2021/01/23 07:56:32;;;;;;;3.20;2.90;;;1.30;99.90;;;;;;5039331;28;20209;-88
2021/01/23 07:58:59;;;;;;;2.65;2.45;;;1.30;99.90;;;;;;5040902;28;20201;-89
2021/01/23 08:01:25;;;;;;;3.10;2.80;;;1.30;99.90;;;;;;5052541;28;20225;-88
2021/01/23 08:03:53;;;;;;;3.30;2.85;;;1.30;99.90;;;;;;5051263;28;20289;-88
2021/01/23 08:06:21;;;;;;;4.28;3.83;;;1.30;99.90;;;;;;5052199;28;20208;-88
2021/01/23 08:08:48;;;;;;;3.97;3.25;;;1.30;99.90;;;;;;5056101;28;20213;-91
2021/01/23 08:11:35;;;;;;;3.83;3.03;;;1.30;99.90;;;;;;5052315;28;20201;-90
2021/01/23 08:14:15;;;;;;;4.80;3.45;;;1.40;99.90;;;;;;5055883;28;20209;-90
2021/01/23 08:16:51;;;;;;;3.17;2.55;;;1.40;99.90;;;;;;5056713;28;20211;-89
2021/01/23 08:19:19;;;;;;;4.53;3.08;;;1.50;99.90;;;;;;5057054;28;20200;-90
2021/01/23 08:22:06;;;;;;;4.00;3.30;;;1.50;99.90;;;;;;5055311;28;20232;-89
2021/01/23 08:24:33;;;;;;;4.10;3.50;;;1.50;99.90;;;;;;5055622;28;20193;-89
2021/01/23 08:27:01;;;;;;;3.30;3.00;;;1.50;99.90;;;;;;5055237;28;20274;-89
2021/01/23 08:29:27;;;;;;;5.40;3.90;;;1.60;99.90;;;;;;5055587;28;20596;-88
2021/01/23 08:32:01;;;;;;;3.85;3.40;;;1.70;99.90;;;;;;5055378;28;20221;-89
2021/01/23 08:34:28;;;;;;;4.05;3.70;;;1.70;99.90;;;;;;5055140;28;20221;-89
2021/01/23 08:37:02;;;;;;;4.40;3.50;;;1.90;99.90;;;;;;5054595;28;20215;-89
2021/01/23 08:39:44;;;;;;;4.20;3.70;;;2.00;99.90;;;;;;5046850;28;20283;-89
2021/01/23 08:42:10;;;;;;;4.13;3.45;;;2.00;99.90;;;;;;5053808;28;20290;-89
2021/01/23 08:44:46;;;;;;;7.80;3.65;;;2.00;99.90;;;;;;5054827;28;20197;-89
2021/01/23 08:47:12;;;;;;;4.22;3.83;;;2.00;99.90;;;;;;5055474;28;20211;-88
2021/01/23 08:49:39;;;;;;;5.75;3.60;;;1.90;99.90;;;;;;5054799;28;20198;-89
2021/01/23 08:52:18;;;;;;;3.88;3.47;;;2.00;99.90;;;;;;5054667;28;20232;-89
2021/01/23 08:54:44;;;;;;;3.78;3.38;;;2.00;99.90;;;;;;5054881;28;20286;-89
2021/01/23 08:57:10;;;;;;;4.53;3.40;;;2.00;99.90;;;;;;5054372;28;20795;-89
2021/01/23 08:59:36;;;;;;;4.70;3.75;;;2.10;99.90;;;;;;5054907;28;20681;-89
2021/01/23 09:02:06;;;;;;;4.72;4.05;;;2.10;99.90;;;;;;5054583;28;20701;-90
2021/01/23 09:04:45;;;;;;;4.57;4.18;;;2.20;99.90;;;;;;5055083;28;20212;-90
2021/01/23 09:07:15;;;;;;;3.78;3.38;;;2.20;99.90;;;;;;5055100;28;20201;-90
2021/01/23 09:09:51;;;;;;;6.57;3.60;;;2.30;99.90;;;;;;5055115;28;20201;-90
2021/01/23 09:12:17;;;;;;;4.70;3.10;;;2.30;99.90;;;;;;5055114;28;20323;-89
2021/01/23 09:14:47;;;;;;;4.00;3.28;;;2.40;99.90;;;;;;5054908;28;20201;-89
2021/01/23 09:17:13;;;;;;;4.35;3.05;;;2.50;99.90;;;;;;5051746;28;20208;-88
2021/01/23 09:19:44;;;;;;;5.10;4.05;;;2.60;99.90;;;;;;5034584;28;20214;-89
2021/01/23 09:22:21;;;;;;;5.55;3.20;;;2.60;99.90;;;;;;5034975;28;20229;-89
2021/01/23 09:24:50;;;;;;;5.85;3.50;;;2.50;99.90;;;;;;5035289;28;20210;-90
2021/01/23 09:27:17;;;;;;;4.22;3.35;;;2.50;99.90;;;;;;5036186;28;20209;-89
2021/01/23 09:29:49;;;;;;;4.63;3.40;;;2.50;99.90;;;;;;5035547;28;20212;-89
2021/01/23 09:32:36;;;;;;;3.20;2.83;;;2.60;99.90;;;;;;5035948;28;20225;-90
2021/01/23 09:35:05;;;;;;;3.30;3.00;;;2.70;99.90;;;;;;5036012;28;20206;-89
2021/01/23 09:37:32;;;;;;;4.70;3.05;;;2.80;99.90;;;;;;5035529;28;20205;-89
2021/01/23 09:42:47;;;;;;;2.88;2.67;;;3.20;99.90;;;;;;5041417;28;20266;-90
2021/01/23 09:45:26;;;;;;;2.72;2.53;;;3.50;99.90;;;;;;5052632;28;20197;-90
2021/01/23 09:47:55;;;;;;;3.35;3.03;;;3.80;99.90;;;;;;5045390;28;20209;-90
2021/01/23 09:50:33;;;;;;;2.78;2.58;;;3.90;99.90;;;;;;5037695;28;20697;-91
2021/01/23 09:53:04;;;;;;;3.97;2.83;;;3.80;99.90;;;;;;5037914;28;20222;-90
2021/01/23 09:55:31;;;;;;;4.15;3.17;;;3.90;99.90;;;;;;5037084;28;20208;-89
2021/01/23 09:57:57;;;;;;;4.70;3.30;;;4.20;99.90;;;;;;5038300;28;20210;-90
2021/01/23 10:00:26;;;;;;;3.28;2.70;;;4.30;99.90;;;;;;5039157;28;20885;-91
2021/01/23 10:02:52;;;;;;;3.42;3.10;;;4.60;99.90;;;;;;5037430;28;20229;-91
2021/01/23 10:05:18;;;;;;;3.53;3.22;;;4.60;99.90;;;;;;5037067;28;20205;-90
2021/01/23 10:07:45;;;;;;;6.15;3.17;;;4.40;99.90;;;;;;5037364;28;20213;-90
2021/01/23 10:10:34;;;;;;;3.65;2.92;;;4.30;99.90;;;;;;5038640;28;20236;-91
2021/01/23 10:13:00;;;;;;;3.80;3.50;;;4.30;99.90;;;;;;5037670;28;20232;-91
2021/01/23 10:15:27;;;;;;;4.25;3.85;;;4.20;99.90;;;;;;5036455;28;20266;-91
2021/01/23 10:17:53;;;;;;;5.22;4.20;;;4.10;99.90;;;;;;5035849;28;20256;-90
2021/01/23 10:20:34;;;;;;;4.72;3.25;;;3.80;99.90;;;;;;5035207;28;20213;-90
2021/01/23 10:25:45;;;;;;;4.22;3.15;;;3.80;99.90;;;;;;5027424;28;20214;-91
2021/01/23 10:28:11;;;;;;;4.22;3.63;;;3.70;99.90;;;;;;5036399;28;20206;-90
2021/01/23 10:30:43;;;;;;;3.35;3.05;;;3.60;99.90;;;;;;5032857;28;20205;-90
2021/01/23 10:33:10;;;;;;;4.32;3.30;;;3.50;99.90;;;;;;5034197;28;20783;-90
2021/01/23 10:35:45;;;;;;;7.25;3.95;;;3.40;99.90;;;;;;5032547;28;20578;-91
2021/01/23 10:38:18;;;;;;;4.20;3.50;;;3.20;99.90;;;;;;5033306;28;20209;-92
2021/01/23 10:41:22;;;;;;;9.82;3.95;;;3.10;99.90;;;;;;5032507;28;20644;-92
2021/01/23 10:44:08;;;;;;;3.40;3.08;;;3.10;99.90;;;;;;5029404;28;20336;-92
2021/01/23 10:46:39;;;;;;;4.80;3.10;;;3.30;99.90;;;;;;5032136;28;20214;-91
2021/01/23 10:49:20;;;;;;;4.15;3.33;;;3.50;99.90;;;;;;5036210;28;20214;-93
2021/01/23 10:51:48;;;;;;;3.63;3.25;;;4.20;99.90;;;;;;5058233;22;20243;-72
2021/01/23 10:54:16;;;;;;;6.25;3.00;;;4.90;99.90;;;;;;5065312;28;20184;-72
2021/01/23 10:56:43;;;;;;;4.05;2.78;;;5.20;99.90;;;;;;5045926;28;20246;-73
2021/01/23 10:59:11;;;;;;;3.50;3.20;;;5.50;99.90;;;;;;5046139;28;20204;-72
2021/01/23 11:01:37;;;;;;;4.22;2.70;;;5.70;99.90;;;;;;5046229;28;20228;-72
2021/01/23 11:04:04;;;;;;;3.17;2.65;;;6.30;99.90;;;;;;5060072;28;20727;-72
2021/01/23 11:06:31;;;;;;;2.97;2.78;;;6.90;99.90;;;;;;5066354;28;20198;-73
2021/01/23 11:08:58;;;;;;;2.72;2.53;;;7.30;99.90;;;;;;5063077;28;20233;-72
2021/01/23 11:11:25;;;;;;;2.78;2.53;;;7.80;99.90;;;;;;5066766;28;20548;-73
2021/01/23 11:13:51;;;;;;;3.65;3.13;;;8.00;99.90;;;;;;5050027;28;20560;-74
2021/01/23 11:16:19;;;;;;;5.22;2.70;;;7.90;99.90;;;;;;5045906;28;20227;-72
2021/01/23 11:18:46;;;;;;;3.10;2.80;;;7.90;99.90;;;;;;5046266;28;20202;-73
2021/01/23 11:21:16;;;;;;;2.72;2.40;;;8.00;99.90;;;;;;5048155;28;20219;-73
2021/01/23 11:23:42;;;;;;;7.85;2.60;;;7.80;99.90;;;;;;5052661;28;20589;-73
2021/01/23 11:26:09;;;;;;;3.95;2.80;;;8.00;99.90;;;;;;5056066;28;20220;-73
2021/01/23 11:28:36;;;;;;;5.78;2.80;;;8.40;99.90;;;;;;5048828;28;20232;-72
2021/01/23 11:31:03;;;;;;;2.85;2.60;;;8.60;99.90;;;;;;5046671;28;20209;-72
2021/01/23 11:33:30;;;;;;;4.75;3.00;;;9.40;99.90;;;;;;5046088;28;20201;-72
2021/01/23 11:35:57;;;;;;;2.20;2.00;;;10.00;99.90;;;;;;5046669;28;20227;-72
2021/01/23 11:38:23;;;;;;;3.40;2.17;;;10.90;99.90;;;;;;5046703;28;20748;-72
2021/01/23 11:40:50;;;;;;;4.03;2.45;;;11.40;99.90;;;;;;5046535;28;20209;-72
2021/01/23 11:43:18;;;;;;;2.90;2.35;;;11.80;99.90;;;;;;5046278;28;20243;-72
2021/01/23 11:45:44;;;;;;;2.85;2.55;;;11.90;99.90;;;;;;5045693;28;20275;-72
2021/01/23 11:48:11;;;;;;;5.68;2.55;;;11.70;99.90;;;;;;5049230;28;20237;-72
2021/01/23 11:50:39;;;;;;;5.10;2.60;;;11.40;99.90;;;;;;5049761;28;20247;-73
2021/01/23 11:53:06;;;;;;;3.63;2.22;;;11.60;99.90;;;;;;5049553;28;20699;-72
2021/01/23 11:55:32;;;;;;;2.47;2.28;;;11.50;99.90;;;;;;5050452;28;20714;-73
2021/01/23 11:57:59;;;;;;;3.97;2.25;;;11.60;99.90;;;;;;5049794;28;20246;-72
2021/01/23 12:00:26;;;;;;;3.45;2.40;;;11.60;99.90;;;;;;5049947;28;21153;-73
2021/01/23 12:02:52;;;;;;;3.28;2.60;;;11.20;99.90;;;;;;5049508;28;20221;-72
2021/01/23 12:05:19;;;;;;;2.65;2.42;;;10.60;99.90;;;;;;5048650;28;20229;-72
2021/01/23 12:07:47;;;;;;;3.95;2.25;;;9.70;99.90;;;;;;5048859;28;20205;-72
2021/01/23 12:10:14;;;;;;;6.50;2.80;;;8.70;99.90;;;;;;5049756;28;20258;-73
2021/01/23 12:12:41;;;;;;;3.45;3.15;;;7.80;99.90;;;;;;5048949;28;20207;-73
2021/01/23 12:15:08;;;;;;;3.72;2.80;;;7.70;99.90;;;;;;5049485;28;20233;-72
2021/01/23 12:17:36;;;;;;;4.47;3.38;;;7.90;99.90;;;;;;5050212;28;20299;-73
2021/01/23 12:20:03;;;;;;;3.05;2.42;;;8.00;99.90;;;;;;5049749;28;20205;-72
2021/01/23 12:22:29;;;;;;;2.22;2.03;;;7.60;99.90;;;;;;5048479;28;20271;-72
2021/01/23 12:24:58;;;;;;;2.90;2.17;;;7.20;99.90;;;;;;5049810;28;20720;-72
2021/01/23 12:27:24;;;;;;;3.28;2.65;;;7.20;99.90;;;;;;5049767;28;20282;-72
2021/01/23 12:29:51;;;;;;;10.80;3.00;;;7.00;99.90;;;;;;5049688;28;20738;-72
2021/01/23 12:32:17;;;;;;;3.13;2.10;;;6.90;99.90;;;;;;5049220;28;20205;-72
2021/01/23 12:34:44;;;;;;;3.92;2.65;;;6.90;99.90;;;;;;5049095;28;20225;-72
2021/01/23 12:37:10;;;;;;;2.85;2.20;;;6.90;99.90;;;;;;5049220;28;20686;-72
2021/01/23 12:39:36;;;;;;;4.95;2.70;;;6.90;99.90;;;;;;5048833;28;20591;-72
2021/01/23 12:42:06;;;;;;;3.30;2.50;;;6.90;99.90;;;;;;5049138;28;20212;-72
2021/01/23 12:44:33;;;;;;;3.17;2.83;;;6.80;99.90;;;;;;5048566;28;20231;-72
2021/01/23 12:46:59;;;;;;;6.82;2.42;;;6.60;99.90;;;;;;5058703;22;20320;-92
2021/01/23 12:49:25;;;;;;;3.25;2.45;;;6.40;99.90;;;;;;5030581;28;20206;-93
2021/01/23 12:51:51;;;;;;;3.30;2.40;;;6.10;99.90;;;;;;5031720;28;20567;-92
2021/01/23 12:54:18;;;;;;;2.88;2.35;;;6.10;99.90;;;;;;5033388;28;20566;-93
2021/01/23 12:56:47;;;;;;;3.15;2.55;;;6.20;99.90;;;;;;5032477;28;20226;-92
2021/01/23 12:59:14;;;;;;;2.85;2.65;;;6.30;99.90;;;;;;5033560;28;20667;-91
2021/01/23 13:01:41;;;;;;;3.10;2.80;;;6.30;99.90;;;;;;5033325;28;20206;-93
2021/01/23 13:04:10;;;;;;;6.70;2.85;;;6.20;99.90;;;;;;5037685;28;20224;-93
2021/01/23 13:06:39;;;;;;;3.97;3.17;;;6.40;99.90;;;;;;5035282;28;20237;-92
2021/01/23 13:09:12;;;;;;;3.30;3.00;;;6.60;99.90;;;;;;5042359;28;20206;-92
2021/01/23 13:11:38;;;;;;;3.63;2.80;;;6.80;99.90;;;;;;5034884;28;20197;-92
2021/01/23 13:14:04;;;;;;;4.05;3.20;;;7.20;99.90;;;;;;5050142;28;20226;-93
2021/01/23 13:16:32;;;;;;;3.15;2.85;;;7.60;99.90;;;;;;5056865;28;20236;-93
2021/01/23 13:18:59;;;;;;;4.70;2.63;;;7.90;99.90;;;;;;5049344;28;20201;-94
2021/01/23 13:21:25;;;;;;;4.10;3.15;;;7.80;99.90;;;;;;5046215;28;20216;-93
2021/01/23 13:23:52;;;;;;;4.60;3.30;;;7.60;99.90;;;;;;5043597;28;20225;-93
2021/01/23 13:26:19;;;;;;;5.40;3.42;;;7.80;99.90;;;;;;5041935;28;20239;-94
2021/01/23 13:28:45;;;;;;;3.42;2.90;;;8.30;99.90;;;;;;5041224;28;20543;-94
2021/01/23 13:31:11;;;;;;;6.15;3.05;;;8.70;99.90;;;;;;5043770;28;20772;-93
2021/01/23 13:33:39;;;;;;;2.83;2.53;;;8.50;99.90;;;;;;5043610;28;20224;-93
2021/01/23 13:36:06;;;;;;;4.68;3.17;;;8.50;99.90;;;;;;5041221;28;20229;-93
2021/01/23 13:38:32;;;;;;;3.78;2.70;;;8.10;99.90;;;;;;5043825;28;20601;-94
2021/01/23 13:40:58;;;;;;;4.40;3.25;;;7.70;99.90;;;;;;5046252;28;20200;-92
2021/01/23 13:43:28;;;;;;;4.10;3.03;;;7.20;99.90;;;;;;5042813;28;20248;-93
2021/01/23 13:45:57;;;;;;;3.30;3.00;;;6.70;99.90;;;;;;5044439;28;20208;-94
2021/01/23 13:48:26;;;;;;;3.00;2.70;;;6.50;99.90;;;;;;5057055;28;20197;-93
2021/01/23 13:50:56;;;;;;;2.85;2.60;;;6.30;99.90;;;;;;5056207;28;20500;-95
2021/01/23 13:53:23;;;;;;;4.05;2.30;;;6.10;99.90;;;;;;5061222;28;20201;-94
2021/01/23 13:55:49;;;;;;;2.60;2.40;;;5.90;99.90;;;;;;5044098;28;20233;-92
2021/01/23 13:58:16;;;;;;;2.72;2.53;;;5.80;99.90;;;;;;5041760;28;20208;-94
2021/01/23 14:00:42;;;;;;;4.88;2.88;;;5.80;99.90;;;;;;5042414;28;20193;-92
2021/01/23 14:03:08;;;;;;;3.67;2.75;;;5.90;99.90;;;;;;5040048;28;20229;-92
2021/01/23 14:05:37;;;;;;;2.65;2.45;;;5.90;99.90;;;;;;5041359;28;20224;-94
2021/01/23 14:08:07;;;;;;;3.50;2.80;;;5.90;99.90;;;;;;5044257;28;20285;-92
2021/01/23 14:10:35;;;;;;;3.85;2.42;;;5.90;99.90;;;;;;5038832;28;20194;-91
2021/01/23 14:13:05;;;;;;;6.03;2.38;;;5.80;99.90;;;;;;5044098;28;20194;-92
2021/01/23 14:15:31;;;;;;;4.45;2.53;;;5.70;99.90;;;;;;5044038;28;20243;-93
2021/01/23 14:18:01;;;;;;;2.95;2.35;;;5.50;99.90;;;;;;5036234;28;20225;-93
2021/01/23 14:20:27;;;;;;;3.72;2.70;;;5.40;99.90;;;;;;5047195;28;20194;-93
2021/01/23 14:22:56;;;;;;;3.53;2.83;;;5.20;99.90;;;;;;5044326;28;20312;-94
2021/01/23 14:25:27;;;;;;;2.88;2.67;;;5.20;99.90;;;;;;5047783;28;20194;-93
2021/01/23 14:27:56;;;;;;;4.18;2.40;;;5.10;99.90;;;;;;5048139;28;20584;-93